createdAt,value
2023-09-25T00:01:36.378Z,2.75
2023-09-25T00:04:03.543Z,2.50
2023-09-25T00:06:30.528Z,2.20
2023-09-25T00:08:57.536Z,2.42
2023-09-25T00:11:24.446Z,2.42
2023-09-25T00:13:51.459Z,2.20
2023-09-25T00:16:18.485Z,1.98
2023-09-25T00:18:45.654Z,2.17
2023-09-25T00:21:12.717Z,2.72
2023-09-25T00:23:39.863Z,2.50
2023-09-25T00:26:07.916Z,2.33
2023-09-25T00:28:36.707Z,2.63
2023-09-25T00:31:03.681Z,2.42
2023-09-25T00:33:32.141Z,2.60
2023-09-25T00:35:59.245Z,2.15
2023-09-25T00:38:27.023Z,2.25
2023-09-25T00:40:55.122Z,2.40
2023-09-25T00:43:22.013Z,2.85
2023-09-25T00:45:49.365Z,2.65
2023-09-25T00:48:29.807Z,2.65
2023-09-25T00:51:02.585Z,1.95
2023-09-25T00:53:31.207Z,2.40
2023-09-25T00:55:58.400Z,2.10
2023-09-25T00:58:26.079Z,2.47
2023-09-25T01:00:54.481Z,2.17
2023-09-25T01:03:21.800Z,1.90
2023-09-25T01:05:50.121Z,1.90
2023-09-25T01:08:17.086Z,1.90
2023-09-25T01:10:45.816Z,2.00
2023-09-25T01:13:13.004Z,2.47
2023-09-25T01:15:40.461Z,1.80
2023-09-25T01:18:09.531Z,2.42
2023-09-25T01:20:38.728Z,2.28
2023-09-25T01:23:05.850Z,1.83
2023-09-25T01:25:32.761Z,2.22
2023-09-25T01:27:59.873Z,2.17
2023-09-25T01:30:27.251Z,2.08
2023-09-25T01:32:54.949Z,2.33
2023-09-25T01:35:24.977Z,2.33
2023-09-25T01:37:56.821Z,2.28
2023-09-25T01:40:23.851Z,2.10
2023-09-25T01:42:50.833Z,2.75
2023-09-25T01:45:20.886Z,2.17
2023-09-25T01:47:53.579Z,2.38
2023-09-25T01:50:26.277Z,2.17
2023-09-25T01:52:56.657Z,2.25
2023-09-25T01:55:23.784Z,2.38
2023-09-25T01:57:50.819Z,2.28
2023-09-25T02:00:20.653Z,2.47
2023-09-25T02:02:48.476Z,2.40
2023-09-25T02:05:16.092Z,2.15
2023-09-25T02:07:43.326Z,2.55
2023-09-25T02:10:10.818Z,2.70
2023-09-25T02:12:38.223Z,2.22
2023-09-25T02:15:08.054Z,2.60
2023-09-25T02:17:35.700Z,2.20
2023-09-25T02:20:12.149Z,2.47
2023-09-25T02:22:40.831Z,2.10
2023-09-25T02:25:08.177Z,2.53
2023-09-25T02:27:35.288Z,2.35
2023-09-25T02:30:02.381Z,2.33
2023-09-25T02:32:30.650Z,2.20
2023-09-25T02:34:57.679Z,2.53
2023-09-25T02:37:24.555Z,2.83
2023-09-25T02:39:51.610Z,2.45
2023-09-25T02:42:18.596Z,2.75
2023-09-25T02:44:45.681Z,2.65
2023-09-25T02:47:12.592Z,2.65
2023-09-25T02:49:40.149Z,2.35
2023-09-25T02:52:07.377Z,2.28
2023-09-25T02:54:34.575Z,3.08
2023-09-25T02:57:01.525Z,2.70
2023-09-25T02:59:28.557Z,2.25
2023-09-25T03:01:55.513Z,2.25
2023-09-25T03:04:22.911Z,2.50
2023-09-25T03:06:49.874Z,2.42
2023-09-25T03:09:17.721Z,2.22
2023-09-25T03:11:45.881Z,3.40
2023-09-25T03:14:12.930Z,2.33
2023-09-25T03:16:42.202Z,2.33
2023-09-25T03:19:09.326Z,2.60
2023-09-25T03:21:38.640Z,2.47
2023-09-25T03:24:06.253Z,2.80
2023-09-25T03:26:33.885Z,2.22
2023-09-25T03:29:01.006Z,3.03
2023-09-25T03:31:28.082Z,3.38
2023-09-25T03:33:55.067Z,2.67
2023-09-25T03:36:22.238Z,2.95
2023-09-25T03:38:52.144Z,2.22
2023-09-25T03:41:19.372Z,2.80
2023-09-25T03:43:46.419Z,2.50
2023-09-25T03:46:13.316Z,2.78
2023-09-25T03:48:40.318Z,2.22
2023-09-25T03:51:07.344Z,2.60
2023-09-25T03:53:34.385Z,2.35
2023-09-25T03:56:01.315Z,2.97
2023-09-25T03:58:28.256Z,2.60
2023-09-25T04:00:55.293Z,2.22
2023-09-25T04:03:22.483Z,2.00
2023-09-25T04:05:49.461Z,2.67
2023-09-25T04:08:16.556Z,2.95
2023-09-25T04:10:45.062Z,2.17
2023-09-25T04:13:12.449Z,2.53
2023-09-25T04:15:39.443Z,2.10
2023-09-25T04:18:09.760Z,2.65
2023-09-25T04:20:39.802Z,2.33
2023-09-25T04:23:06.968Z,2.35
2023-09-25T04:25:34.051Z,2.05
2023-09-25T04:28:01.516Z,2.05
2023-09-25T04:30:29.522Z,2.60
2023-09-25T04:32:56.998Z,2.13
2023-09-25T04:35:25.266Z,2.40
2023-09-25T04:37:53.078Z,2.60
2023-09-25T04:40:24.501Z,2.88
2023-09-25T04:42:53.034Z,2.40
2023-09-25T04:45:21.057Z,2.75
2023-09-25T04:47:49.822Z,2.58
2023-09-25T04:50:20.273Z,2.42
2023-09-25T04:52:47.471Z,2.65
2023-09-25T04:55:14.856Z,2.50
2023-09-25T04:57:44.374Z,2.88
2023-09-25T05:00:26.948Z,2.95
2023-09-25T05:02:56.016Z,2.25
2023-09-25T05:05:23.816Z,3.90
2023-09-25T05:07:52.109Z,2.97
2023-09-25T05:10:24.102Z,2.40
2023-09-25T05:12:51.736Z,2.55
2023-09-25T05:15:19.218Z,2.95
2023-09-25T05:17:46.620Z,2.80
2023-09-25T05:20:20.053Z,2.67
2023-09-25T05:22:49.568Z,3.00
2023-09-25T05:25:18.145Z,2.90
2023-09-25T05:27:51.474Z,2.75
2023-09-25T05:30:20.399Z,3.17
2023-09-25T05:32:50.046Z,3.00
2023-09-25T05:35:18.630Z,2.50
2023-09-25T05:37:47.571Z,2.78
2023-09-25T05:40:16.297Z,2.90
2023-09-25T05:42:44.987Z,2.25
2023-09-25T05:45:13.423Z,2.40
2023-09-25T05:47:40.621Z,3.25
2023-09-25T05:50:08.315Z,2.00
2023-09-25T05:52:39.136Z,2.92
2023-09-25T05:55:11.719Z,2.63
2023-09-25T05:57:39.441Z,2.65
2023-09-25T06:00:15.132Z,2.28
2023-09-25T06:02:44.022Z,2.60
2023-09-25T06:05:15.292Z,2.45
2023-09-25T06:07:43.689Z,3.00
2023-09-25T06:10:11.675Z,2.17
2023-09-25T06:12:40.927Z,3.17
2023-09-25T06:15:11.997Z,2.25
2023-09-25T06:17:41.118Z,2.55
2023-09-25T06:20:17.332Z,2.90
2023-09-25T06:22:45.647Z,2.60
2023-09-25T06:25:13.047Z,1.85
2023-09-25T06:27:41.601Z,2.45
2023-09-25T06:30:10.925Z,2.50
2023-09-25T06:32:38.592Z,2.10
2023-09-25T06:35:07.914Z,2.25
2023-09-25T06:37:37.844Z,2.63
2023-09-25T06:40:17.285Z,2.25
2023-09-25T06:42:44.892Z,2.83
2023-09-25T06:45:12.363Z,2.40
2023-09-25T06:47:39.474Z,2.63
2023-09-25T06:50:07.078Z,2.63
2023-09-25T06:52:34.105Z,2.63
2023-09-25T06:55:01.123Z,2.60
2023-09-25T06:57:28.068Z,2.53
2023-09-25T06:59:55.255Z,2.58
2023-09-25T07:02:22.259Z,2.55
2023-09-25T07:04:49.761Z,2.58
2023-09-25T07:07:16.991Z,2.20
2023-09-25T07:09:44.452Z,2.80
2023-09-25T07:12:15.829Z,3.25
2023-09-25T07:14:49.913Z,2.80
2023-09-25T07:17:17.724Z,2.65
2023-09-25T07:19:44.703Z,2.55
2023-09-25T07:22:11.804Z,2.50
2023-09-25T07:24:39.761Z,2.28
2023-09-25T07:27:07.011Z,3.03
2023-09-25T07:29:41.981Z,3.10
2023-09-25T07:32:09.806Z,2.83
2023-09-25T07:34:36.972Z,2.75
2023-09-25T07:37:06.184Z,2.63
2023-09-25T07:39:36.366Z,2.55
2023-09-25T07:42:03.607Z,2.72
2023-09-25T07:44:34.859Z,2.47
2023-09-25T07:47:07.879Z,2.72
2023-09-25T07:49:41.775Z,2.50
2023-09-25T07:52:19.477Z,2.88
2023-09-25T07:54:48.113Z,2.47
2023-09-25T07:57:16.677Z,2.45
2023-09-25T07:59:44.106Z,2.92
2023-09-25T08:02:13.203Z,2.55
2023-09-25T08:04:40.182Z,2.55
2023-09-25T08:07:07.083Z,3.10
2023-09-25T08:09:34.156Z,2.95
2023-09-25T08:12:01.071Z,3.00
2023-09-25T08:14:27.970Z,2.83
2023-09-25T08:16:55.173Z,2.58
2023-09-25T08:19:24.154Z,3.33
2023-09-25T08:21:54.950Z,2.88
2023-09-25T08:24:22.246Z,3.17
2023-09-25T08:26:49.354Z,2.83
2023-09-25T08:29:17.806Z,3.00
2023-09-25T08:31:45.546Z,3.08
2023-09-25T08:34:13.015Z,3.10
2023-09-25T08:36:40.192Z,2.60
2023-09-25T08:39:10.297Z,3.00
2023-09-25T08:41:38.332Z,2.97
2023-09-25T08:44:05.487Z,3.42
2023-09-25T08:46:32.772Z,3.25
2023-09-25T08:49:02.631Z,2.40
2023-09-25T08:51:36.455Z,3.05
2023-09-25T08:54:04.573Z,3.10
2023-09-25T08:56:32.932Z,2.60
2023-09-25T08:59:03.849Z,2.60
2023-09-25T09:01:31.424Z,2.92
2023-09-25T09:03:58.526Z,3.05
2023-09-25T09:06:25.804Z,3.42
2023-09-25T09:08:53.187Z,3.13
2023-09-25T09:11:22.473Z,2.67
2023-09-25T09:13:50.515Z,2.38
2023-09-25T09:16:21.372Z,3.60
2023-09-25T09:18:49.259Z,2.97
2023-09-25T09:21:28.494Z,2.70
2023-09-25T09:23:57.825Z,3.05
2023-09-25T09:26:25.756Z,3.00
2023-09-25T09:28:55.419Z,2.20
2023-09-25T09:31:23.022Z,3.10
2023-09-25T09:33:50.214Z,2.65
2023-09-25T09:36:17.534Z,2.50
2023-09-25T09:38:47.543Z,2.47
2023-09-25T09:41:16.069Z,2.72
2023-09-25T09:43:42.986Z,2.55
2023-09-25T09:46:14.403Z,2.08
2023-09-25T09:48:43.176Z,2.20
2023-09-25T09:51:10.648Z,2.33
2023-09-25T09:53:38.240Z,2.22
2023-09-25T09:56:05.243Z,2.60
2023-09-25T09:58:33.240Z,2.67
2023-09-25T10:01:01.631Z,2.03
2023-09-25T10:03:30.987Z,3.03
2023-09-25T10:05:58.470Z,2.15
2023-09-25T10:08:26.397Z,2.42
2023-09-25T10:10:53.664Z,2.60
2023-09-25T10:13:31.131Z,2.75
2023-09-25T10:16:00.112Z,2.67
2023-09-25T10:18:31.277Z,2.85
2023-09-25T10:21:10.631Z,2.15
2023-09-25T10:23:42.393Z,2.92
2023-09-25T10:26:30.310Z,2.53
2023-09-25T10:29:13.996Z,3.35
2023-09-25T10:31:46.765Z,2.58
2023-09-25T10:34:14.034Z,2.58
2023-09-25T10:36:46.147Z,2.72
2023-09-25T10:39:17.777Z,2.85
2023-09-25T10:41:48.550Z,2.88
2023-09-25T10:44:16.989Z,2.45
2023-09-25T10:46:45.193Z,2.80
2023-09-25T10:49:12.786Z,2.90
2023-09-25T10:51:39.886Z,2.25
2023-09-25T10:54:07.015Z,2.38
2023-09-25T10:56:34.585Z,2.97
2023-09-25T10:59:02.650Z,3.13
2023-09-25T11:01:33.189Z,2.50
2023-09-25T11:04:01.574Z,2.53
2023-09-25T11:06:30.351Z,11.57
2023-09-25T11:09:06.888Z,12.68
2023-09-25T11:11:34.129Z,3.25
2023-09-25T11:14:01.761Z,2.92
2023-09-25T11:16:30.013Z,2.50
2023-09-25T11:19:07.254Z,2.42
2023-09-25T11:21:34.311Z,2.70
2023-09-25T11:24:05.578Z,3.00
2023-09-25T11:26:37.726Z,2.60
2023-09-25T11:29:09.211Z,3.20
2023-09-25T11:31:54.308Z,3.25
2023-09-25T11:34:25.104Z,2.88
2023-09-25T11:36:52.157Z,2.00
2023-09-25T11:39:19.342Z,3.30
2023-09-25T11:41:47.099Z,3.33
2023-09-25T11:44:15.383Z,3.17
2023-09-25T11:46:44.047Z,2.67
2023-09-25T11:49:11.338Z,3.63
2023-09-25T11:51:38.491Z,3.10
2023-09-25T11:54:06.284Z,3.20
2023-09-25T11:56:34.554Z,2.97
2023-09-25T11:59:01.743Z,3.30
2023-09-25T12:01:29.842Z,3.47
2023-09-25T12:03:57.480Z,3.00
2023-09-25T12:06:25.936Z,3.88
2023-09-25T12:08:53.219Z,3.88
2023-09-25T12:11:20.338Z,3.03
2023-09-25T12:13:47.297Z,2.80
2023-09-25T12:16:14.518Z,2.80
2023-09-25T12:18:42.221Z,2.47
2023-09-25T12:21:10.503Z,3.53
2023-09-25T12:23:37.599Z,2.92
2023-09-25T12:26:05.696Z,3.10
2023-09-25T12:28:35.072Z,3.10
2023-09-25T12:31:02.148Z,2.80
2023-09-25T12:33:29.167Z,2.90
2023-09-25T12:35:56.236Z,3.22
2023-09-25T12:38:23.133Z,2.92
2023-09-25T12:40:50.144Z,2.92
2023-09-25T12:43:17.262Z,3.03
2023-09-25T12:45:44.445Z,3.08
2023-09-25T12:48:11.466Z,3.00
2023-09-25T12:50:38.644Z,2.97
2023-09-25T12:53:05.924Z,2.78
2023-09-25T12:55:35.222Z,2.30
2023-09-25T12:58:03.101Z,3.05
2023-09-25T13:00:30.156Z,3.78
2023-09-25T13:02:57.237Z,3.25
2023-09-25T13:05:24.618Z,3.15
2023-09-25T13:07:51.460Z,2.65
2023-09-25T13:10:19.942Z,2.90
2023-09-25T13:12:47.073Z,3.22
2023-09-25T13:15:15.797Z,2.90
2023-09-25T13:17:42.931Z,3.15
2023-09-25T13:20:11.150Z,2.70
2023-09-25T13:22:38.605Z,3.22
2023-09-25T13:25:09.334Z,2.88
2023-09-25T13:27:38.300Z,2.88
2023-09-25T13:30:12.906Z,2.92
2023-09-25T13:32:40.138Z,2.83
2023-09-25T13:35:10.952Z,2.90
2023-09-25T13:37:38.805Z,3.08
2023-09-25T13:40:12.227Z,2.25
2023-09-25T13:42:39.828Z,3.10
2023-09-25T13:45:08.186Z,3.38
2023-09-25T13:47:35.085Z,2.75
2023-09-25T13:50:02.791Z,3.10
2023-09-25T13:52:29.931Z,4.95
2023-09-25T13:54:58.354Z,9.90
2023-09-25T13:57:25.605Z,4.82
2023-09-25T13:59:52.870Z,2.92
2023-09-25T14:02:19.998Z,2.55
2023-09-25T14:04:46.996Z,3.47
2023-09-25T14:07:14.189Z,2.72
2023-09-25T14:09:42.089Z,2.65
2023-09-25T14:12:10.548Z,2.38
2023-09-25T14:14:47.050Z,3.00
2023-09-25T14:17:14.047Z,2.60
2023-09-25T14:19:40.964Z,2.67
2023-09-25T14:22:08.191Z,3.13
2023-09-25T14:24:35.468Z,2.45
2023-09-25T14:27:02.833Z,3.38
2023-09-25T14:29:31.587Z,3.30
2023-09-25T14:31:59.459Z,3.17
2023-09-25T14:34:26.434Z,2.63
2023-09-25T14:36:56.175Z,4.20
2023-09-25T14:39:30.046Z,2.97
2023-09-25T14:41:57.768Z,2.70
2023-09-25T14:44:25.062Z,2.35
2023-09-25T14:46:52.819Z,2.05
2023-09-25T14:49:21.321Z,2.50
2023-09-25T14:51:48.842Z,2.08
2023-09-25T14:54:15.840Z,2.92
2023-09-25T14:56:42.763Z,2.28
2023-09-25T14:59:09.990Z,2.92
2023-09-25T15:01:36.975Z,3.65
2023-09-25T15:04:04.799Z,2.78
2023-09-25T15:06:32.175Z,2.40
2023-09-25T15:08:59.152Z,2.60
2023-09-25T15:11:26.155Z,3.47
2023-09-25T15:13:53.140Z,3.00
2023-09-25T15:16:20.427Z,3.08
2023-09-25T15:18:47.598Z,3.58
2023-09-25T15:21:14.613Z,16.40
2023-09-25T15:23:41.994Z,6.35
2023-09-25T15:26:08.957Z,4.45
2023-09-25T15:28:36.088Z,3.35
2023-09-25T15:31:03.292Z,2.65
2023-09-25T15:33:30.480Z,2.60
2023-09-25T15:35:59.240Z,2.78
2023-09-25T15:38:26.211Z,2.55
2023-09-25T15:40:53.266Z,3.05
2023-09-25T15:43:20.624Z,2.70
2023-09-25T15:45:47.880Z,2.50
2023-09-25T15:48:14.982Z,3.13
2023-09-25T15:50:42.057Z,2.08
2023-09-25T15:53:09.036Z,2.60
2023-09-25T15:55:37.374Z,2.55
2023-09-25T15:58:04.998Z,3.25
2023-09-25T16:00:31.950Z,2.58
2023-09-25T16:02:59.142Z,2.83
2023-09-25T16:05:26.226Z,3.72
2023-09-25T16:07:53.227Z,2.80
2023-09-25T16:10:20.110Z,3.22
2023-09-25T16:12:47.161Z,3.38
2023-09-25T16:15:14.116Z,3.83
2023-09-25T16:17:42.142Z,6.18
2023-09-25T16:20:09.284Z,4.57
2023-09-25T16:22:36.240Z,3.83
2023-09-25T16:25:03.390Z,7.78
2023-09-25T16:27:31.991Z,5.32
2023-09-25T16:30:00.406Z,3.63
2023-09-25T16:32:27.308Z,3.15
2023-09-25T16:34:54.286Z,3.33
2023-09-25T16:37:22.515Z,2.75
2023-09-25T16:39:49.774Z,2.65
2023-09-25T16:42:16.747Z,2.92
2023-09-25T16:44:44.000Z,2.90
2023-09-25T16:47:11.213Z,2.92
2023-09-25T16:49:38.278Z,3.88
2023-09-25T16:52:05.367Z,2.50
2023-09-25T16:54:32.518Z,2.70
2023-09-25T16:56:59.511Z,2.30
2023-09-25T16:59:26.425Z,3.40
2023-09-25T17:01:53.571Z,3.10
2023-09-25T17:04:20.803Z,3.20
2023-09-25T17:06:47.960Z,3.05
2023-09-25T17:09:14.808Z,3.33
2023-09-25T17:11:41.838Z,2.72
2023-09-25T17:14:11.047Z,2.63
2023-09-25T17:16:38.503Z,3.35
2023-09-25T17:19:05.598Z,4.03
2023-09-25T17:21:32.729Z,2.78
2023-09-25T17:23:59.749Z,2.70
2023-09-25T17:26:26.681Z,2.60
2023-09-25T17:28:53.666Z,3.03
2023-09-25T17:31:22.256Z,3.05
2023-09-25T17:33:50.876Z,3.83
2023-09-25T17:36:18.558Z,3.53
2023-09-25T17:38:45.613Z,2.90
2023-09-25T17:41:12.681Z,3.63
2023-09-25T17:43:39.848Z,3.60
2023-09-25T17:46:09.291Z,3.35
2023-09-25T17:48:40.845Z,3.30
2023-09-25T17:51:08.108Z,3.13
2023-09-25T17:53:35.253Z,2.72
2023-09-25T17:56:02.279Z,3.38
2023-09-25T17:58:31.455Z,3.45
2023-09-25T18:01:00.670Z,2.70
2023-09-25T18:03:28.829Z,3.15
2023-09-25T18:05:55.867Z,3.60
2023-09-25T18:08:23.212Z,4.35
2023-09-25T18:10:50.264Z,3.58
2023-09-25T18:13:19.781Z,3.03
2023-09-25T18:15:49.678Z,3.20
2023-09-25T18:18:16.754Z,2.95
2023-09-25T18:20:44.116Z,4.72
2023-09-25T18:23:11.706Z,3.83
2023-09-25T18:25:39.918Z,3.88
2023-09-25T18:28:07.140Z,4.55
2023-09-25T18:30:34.083Z,4.60
2023-09-25T18:33:04.416Z,4.47
2023-09-25T18:35:31.553Z,4.45
2023-09-25T18:37:58.563Z,4.53
2023-09-25T18:40:25.416Z,3.58
2023-09-25T18:42:53.091Z,3.38
2023-09-25T18:45:20.078Z,4.15
2023-09-25T18:47:47.222Z,4.28
2023-09-25T18:50:14.914Z,3.55
2023-09-25T18:52:41.945Z,3.25
2023-09-25T18:55:09.131Z,3.72
2023-09-25T18:57:36.102Z,3.33
2023-09-25T19:00:04.282Z,4.07
2023-09-25T19:02:31.196Z,4.10
2023-09-25T19:04:58.236Z,3.53
2023-09-25T19:07:25.554Z,3.97
2023-09-25T19:09:52.584Z,4.20
2023-09-25T19:12:19.883Z,5.20
2023-09-25T19:14:47.735Z,4.57
2023-09-25T19:17:14.884Z,3.72
2023-09-25T19:19:41.966Z,4.85
2023-09-25T19:22:09.873Z,5.22
2023-09-25T19:24:37.458Z,4.90
2023-09-25T19:27:05.672Z,5.35
2023-09-25T19:29:33.203Z,5.38
2023-09-25T19:32:00.377Z,4.97
2023-09-25T19:34:28.228Z,5.43
2023-09-25T19:36:55.275Z,4.38
2023-09-25T19:39:22.445Z,4.93
2023-09-25T19:41:49.386Z,5.32
2023-09-25T19:44:17.575Z,5.18
2023-09-25T19:46:44.744Z,4.50
2023-09-25T19:49:12.121Z,5.82
2023-09-25T19:51:40.015Z,5.13
2023-09-25T19:54:07.967Z,4.95
2023-09-25T19:56:34.840Z,5.15
2023-09-25T19:59:02.173Z,4.05
2023-09-25T20:01:29.497Z,5.65
2023-09-25T20:03:57.007Z,4.82
2023-09-25T20:06:24.490Z,5.55
2023-09-25T20:08:51.682Z,5.07
2023-09-25T20:11:18.805Z,4.40
2023-09-25T20:13:45.732Z,4.70
2023-09-25T20:16:12.907Z,6.22
2023-09-25T20:18:40.143Z,5.80
2023-09-25T20:21:07.679Z,5.20
2023-09-25T20:23:34.785Z,5.05
2023-09-25T20:26:06.594Z,4.88
2023-09-25T20:28:33.645Z,5.68
2023-09-25T20:31:00.653Z,5.47
2023-09-25T20:33:28.079Z,5.32
2023-09-25T20:35:56.110Z,5.50
2023-09-25T20:38:25.422Z,5.72
2023-09-25T20:40:52.662Z,5.00
2023-09-25T20:43:20.000Z,6.22
2023-09-25T20:45:47.207Z,6.00
2023-09-25T20:48:14.244Z,4.82
2023-09-25T20:50:41.956Z,5.53
2023-09-25T20:53:08.995Z,5.78
2023-09-25T20:55:35.980Z,5.65
2023-09-25T20:58:04.627Z,6.40
2023-09-25T21:00:32.024Z,5.95
2023-09-25T21:02:59.540Z,5.25
2023-09-25T21:05:28.013Z,5.78
2023-09-25T21:07:56.031Z,6.43
2023-09-25T21:10:23.282Z,4.13
2023-09-25T21:12:50.322Z,7.50
2023-09-25T21:15:17.744Z,5.43
2023-09-25T21:17:44.911Z,5.53
2023-09-25T21:20:12.665Z,4.80
2023-09-25T21:22:39.984Z,4.35
2023-09-25T21:25:09.661Z,5.38
2023-09-25T21:27:36.968Z,5.30
2023-09-25T21:30:04.299Z,5.00
2023-09-25T21:32:31.440Z,5.20
2023-09-25T21:34:58.392Z,5.22
2023-09-25T21:37:25.595Z,5.15
2023-09-25T21:39:52.606Z,5.35
2023-09-25T21:42:19.832Z,4.70
2023-09-25T21:44:46.867Z,5.35
2023-09-25T21:47:13.854Z,4.80
2023-09-25T21:49:41.104Z,4.43
2023-09-25T21:52:08.051Z,5.80
2023-09-25T21:54:35.109Z,5.68
2023-09-25T21:57:02.092Z,5.57
2023-09-25T21:59:30.913Z,5.82
2023-09-25T22:01:57.922Z,6.32
2023-09-25T22:04:25.142Z,5.63
2023-09-25T22:06:52.310Z,5.72
2023-09-25T22:09:20.181Z,7.75
2023-09-25T22:11:47.018Z,6.22
2023-09-25T22:14:14.086Z,6.13
2023-09-25T22:16:43.232Z,5.75
2023-09-25T22:19:10.604Z,6.28
2023-09-25T22:21:37.551Z,5.97
2023-09-25T22:24:04.570Z,5.88
2023-09-25T22:26:31.673Z,6.00
2023-09-25T22:28:58.697Z,7.47
2023-09-25T22:31:25.841Z,5.82
2023-09-25T22:33:53.950Z,8.43
2023-09-25T22:36:21.265Z,9.15
2023-09-25T22:38:48.544Z,10.10
2023-09-25T22:41:15.969Z,10.25
2023-09-25T22:43:47.715Z,9.00
2023-09-25T22:46:14.911Z,9.77
2023-09-25T22:48:42.138Z,10.60
2023-09-25T22:51:09.290Z,10.40
2023-09-25T22:53:36.225Z,9.68
2023-09-25T22:56:04.723Z,9.15
2023-09-25T22:58:31.686Z,8.90
2023-09-25T23:00:58.845Z,8.68
2023-09-25T23:03:25.913Z,8.38
2023-09-25T23:05:52.944Z,8.70
2023-09-25T23:08:19.865Z,10.95
2023-09-25T23:10:47.008Z,8.43
2023-09-25T23:13:14.144Z,8.70
2023-09-25T23:15:41.376Z,10.02
2023-09-25T23:18:08.793Z,8.60
2023-09-25T23:20:35.829Z,9.52
2023-09-25T23:23:02.741Z,9.30
2023-09-25T23:25:29.773Z,10.00
2023-09-25T23:27:56.981Z,10.85
2023-09-25T23:30:25.028Z,9.38
2023-09-25T23:32:52.693Z,10.48
2023-09-25T23:35:20.731Z,10.02
2023-09-25T23:37:48.703Z,9.38
2023-09-25T23:40:18.355Z,9.55
2023-09-25T23:42:46.969Z,8.50
2023-09-25T23:45:15.347Z,8.98
2023-09-25T23:47:42.960Z,7.75
2023-09-25T23:50:11.909Z,9.85
2023-09-25T23:52:41.023Z,8.23
2023-09-25T23:55:10.073Z,9.32
2023-09-25T23:57:39.758Z,9.80
